createdAt,value
2019-03-21T00:01:45.140Z,7.50
2019-03-21T00:04:15.632Z,12.43
2019-03-21T00:06:45.863Z,9.33
2019-03-21T00:09:17.817Z,11.53
2019-03-21T00:12:18.886Z,12.30
2019-03-21T00:15:16.168Z,10.27
2019-03-21T00:17:52.936Z,15.23
2019-03-21T00:20:22.186Z,10.00
2019-03-21T00:22:55.924Z,10.10
2019-03-21T00:25:26.351Z,11.53
2019-03-21T00:27:56.504Z,7.20
2019-03-21T00:30:26.688Z,8.73
2019-03-21T00:32:56.855Z,13.57
2019-03-21T00:35:27.021Z,10.07
2019-03-21T00:37:57.249Z,11.67
2019-03-21T00:40:30.141Z,10.33
2019-03-21T00:43:02.001Z,11.20
2019-03-21T00:45:32.184Z,11.80
2019-03-21T00:48:03.357Z,13.87
2019-03-21T00:50:33.532Z,5.50
2019-03-21T00:53:03.708Z,10.80
2019-03-21T00:55:34.735Z,10.67
2019-03-21T00:58:05.022Z,14.63
2019-03-21T01:00:41.888Z,12.63
2019-03-21T01:03:13.182Z,10.83
2019-03-21T01:05:43.837Z,13.90
2019-03-21T01:08:14.097Z,8.80
2019-03-21T01:10:44.264Z,10.87
2019-03-21T01:13:14.789Z,12.77
2019-03-21T01:15:44.968Z,11.60
2019-03-21T01:18:15.151Z,11.03
2019-03-21T01:20:45.528Z,9.97
2019-03-21T01:23:15.776Z,15.60
2019-03-21T01:25:48.652Z,10.13
2019-03-21T01:28:18.805Z,15.60
2019-03-21T01:30:49.000Z,11.03
2019-03-21T01:33:19.179Z,13.67
2019-03-21T01:35:49.356Z,9.57
2019-03-21T01:38:19.568Z,6.23
2019-03-21T01:40:50.369Z,8.03
2019-03-21T01:43:20.746Z,13.43
2019-03-21T01:45:50.911Z,13.13
2019-03-21T01:48:21.088Z,12.93
2019-03-21T01:50:51.252Z,12.97
2019-03-21T01:53:21.440Z,13.97
2019-03-21T01:55:51.628Z,17.13
2019-03-21T01:58:21.800Z,14.23
2019-03-21T02:00:52.028Z,15.60
2019-03-21T02:03:22.124Z,12.83
2019-03-21T02:05:52.398Z,9.80
2019-03-21T02:08:22.644Z,12.00
2019-03-21T02:10:52.836Z,11.83
2019-03-21T02:13:23.120Z,11.97
2019-03-21T02:15:53.313Z,11.83
2019-03-21T02:18:23.567Z,9.90
2019-03-21T02:20:53.717Z,14.03
2019-03-21T02:23:24.109Z,15.40
2019-03-21T02:25:54.364Z,10.03
2019-03-21T02:28:24.531Z,13.70
2019-03-21T02:30:54.757Z,13.57
2019-03-21T02:33:27.907Z,15.77
2019-03-21T02:35:58.104Z,10.77
2019-03-21T02:38:28.296Z,11.23
2019-03-21T02:40:59.550Z,12.77
2019-03-21T02:43:29.605Z,11.53
2019-03-21T02:45:59.743Z,7.70
2019-03-21T02:48:29.816Z,16.53
2019-03-21T02:50:59.969Z,11.73
2019-03-21T02:53:30.115Z,16.93
2019-03-21T02:56:00.276Z,11.47
2019-03-21T02:58:30.717Z,17.00
2019-03-21T03:01:01.340Z,16.47
2019-03-21T03:03:31.404Z,12.07
2019-03-21T03:06:01.560Z,11.10
2019-03-21T03:08:31.744Z,12.73
2019-03-21T03:11:02.099Z,7.23
2019-03-21T03:13:32.252Z,14.50
2019-03-21T03:16:02.436Z,17.13
2019-03-21T03:18:32.579Z,11.53
2019-03-21T03:21:02.668Z,11.90
2019-03-21T03:23:32.782Z,13.47
2019-03-21T03:26:02.835Z,11.17
2019-03-21T03:28:32.927Z,15.30
2019-03-21T03:31:03.112Z,21.73
2019-03-21T03:33:33.418Z,11.37
2019-03-21T03:36:03.553Z,11.07
2019-03-21T03:38:33.744Z,18.77
2019-03-21T03:41:04.016Z,13.60
2019-03-21T03:43:34.160Z,12.20
2019-03-21T03:46:04.325Z,12.10
2019-03-21T03:48:34.402Z,15.70
2019-03-21T03:51:04.532Z,13.20
2019-03-21T03:53:34.693Z,14.80
2019-03-21T03:56:04.819Z,20.63
2019-03-21T03:58:35.472Z,11.07
2019-03-21T04:01:05.967Z,18.10
2019-03-21T04:03:36.189Z,15.43
2019-03-21T04:06:06.855Z,15.47
2019-03-21T04:08:37.305Z,16.00
2019-03-21T04:11:07.652Z,13.07
2019-03-21T04:13:37.783Z,16.20
2019-03-21T04:16:07.934Z,21.07
2019-03-21T04:18:38.050Z,9.20
2019-03-21T04:21:08.225Z,13.40
2019-03-21T04:23:38.383Z,15.23
2019-03-21T04:26:15.307Z,19.63
2019-03-21T04:28:45.473Z,15.23
2019-03-21T04:31:15.586Z,14.70
2019-03-21T04:33:46.107Z,16.23
2019-03-21T04:36:16.236Z,18.20
2019-03-21T04:38:46.400Z,15.13
2019-03-21T04:41:16.536Z,16.47
2019-03-21T04:43:46.671Z,15.03
2019-03-21T04:46:16.910Z,15.30
2019-03-21T04:48:47.067Z,14.03
2019-03-21T04:51:17.204Z,16.67
2019-03-21T04:53:47.360Z,13.63
2019-03-21T04:56:17.515Z,18.07
2019-03-21T04:58:47.671Z,14.30
2019-03-21T05:01:17.814Z,16.33
2019-03-21T05:03:47.947Z,18.60
2019-03-21T05:06:18.089Z,11.23
2019-03-21T05:08:48.387Z,16.60
2019-03-21T05:11:18.507Z,17.87
2019-03-21T05:13:48.652Z,17.03
2019-03-21T05:16:18.735Z,16.03
2019-03-21T05:18:49.517Z,18.47
2019-03-21T05:21:19.979Z,12.60
2019-03-21T05:23:50.135Z,13.70
2019-03-21T05:26:20.275Z,15.17
2019-03-21T05:28:50.424Z,17.53
2019-03-21T05:31:27.219Z,17.90
2019-03-21T05:33:57.355Z,8.40
2019-03-21T05:36:27.495Z,14.80
2019-03-21T05:38:57.706Z,14.77
2019-03-21T05:41:27.836Z,17.27
2019-03-21T05:44:01.679Z,21.80
2019-03-21T05:46:32.267Z,14.37
2019-03-21T05:49:02.440Z,14.93
2019-03-21T05:51:32.500Z,14.77
2019-03-21T05:54:02.640Z,14.43
2019-03-21T05:56:32.796Z,10.27
2019-03-21T05:59:03.041Z,19.00
2019-03-21T06:01:33.219Z,18.67
2019-03-21T06:04:03.394Z,16.33
2019-03-21T06:06:49.511Z,20.17
2019-03-21T06:09:20.896Z,11.13
2019-03-21T06:11:54.855Z,14.60
2019-03-21T06:14:25.395Z,14.27
2019-03-21T06:16:55.569Z,15.33
2019-03-21T06:19:42.431Z,12.87
2019-03-21T06:22:28.812Z,11.83
2019-03-21T06:25:25.043Z,12.03
2019-03-21T06:27:55.175Z,14.47
2019-03-21T06:30:25.339Z,10.53
2019-03-21T06:32:55.559Z,15.63
2019-03-21T06:35:25.967Z,18.53
2019-03-21T06:37:56.107Z,13.10
2019-03-21T06:40:26.324Z,15.70
2019-03-21T06:42:56.448Z,13.40
2019-03-21T06:45:26.607Z,15.73
2019-03-21T06:47:56.767Z,12.07
2019-03-21T06:50:26.916Z,13.90
2019-03-21T06:52:57.089Z,16.30
2019-03-21T06:55:27.339Z,11.50
2019-03-21T06:57:57.463Z,14.00
2019-03-21T07:00:27.607Z,9.33
2019-03-21T07:02:57.748Z,19.23
2019-03-21T07:05:27.887Z,16.50
2019-03-21T07:07:58.007Z,17.43
2019-03-21T07:10:28.159Z,14.20
2019-03-21T07:12:58.360Z,12.33
2019-03-21T07:15:28.507Z,16.33
2019-03-21T07:17:58.654Z,16.70
2019-03-21T07:20:28.799Z,12.47
2019-03-21T07:22:58.951Z,12.37
2019-03-21T07:25:29.101Z,13.83
2019-03-21T07:27:59.245Z,13.10
2019-03-21T07:30:29.388Z,14.80
2019-03-21T07:32:59.463Z,8.83
2019-03-21T07:35:29.511Z,12.87
2019-03-21T07:37:59.649Z,12.43
2019-03-21T07:40:30.172Z,12.17
2019-03-21T07:43:00.318Z,10.90
2019-03-21T07:45:30.516Z,10.77
2019-03-21T07:48:00.820Z,12.30
2019-03-21T07:50:31.672Z,19.13
2019-03-21T07:53:01.855Z,13.23
2019-03-21T07:55:31.988Z,10.90
2019-03-21T07:58:02.140Z,8.70
2019-03-21T08:00:32.272Z,13.33
2019-03-21T08:03:02.437Z,10.40
2019-03-21T08:05:40.134Z,12.43
2019-03-21T08:08:04.391Z,13.07
2019-03-21T08:10:34.580Z,14.53
2019-03-21T08:13:04.655Z,10.23
2019-03-21T08:15:34.801Z,11.37
2019-03-21T08:18:04.939Z,11.83
2019-03-21T08:20:35.091Z,9.90
2019-03-21T08:23:05.660Z,10.93
2019-03-21T08:25:35.811Z,12.23
2019-03-21T08:28:06.028Z,13.13
2019-03-21T08:30:36.481Z,8.63
2019-03-21T08:33:06.850Z,15.23
2019-03-21T08:35:36.997Z,12.50
2019-03-21T08:38:07.129Z,13.33
2019-03-21T08:40:37.327Z,15.43
2019-03-21T08:43:07.474Z,13.57
2019-03-21T08:45:37.601Z,11.10
2019-03-21T08:48:07.755Z,11.53
2019-03-21T08:50:37.903Z,13.00
2019-03-21T08:53:08.044Z,10.90
2019-03-21T08:55:38.191Z,10.90
2019-03-21T08:58:08.360Z,14.97
2019-03-21T09:00:38.487Z,11.47
2019-03-21T09:03:08.572Z,12.33
2019-03-21T09:05:38.724Z,10.10
2019-03-21T09:08:08.863Z,11.13
2019-03-21T09:10:39.019Z,6.87
2019-03-21T09:13:09.173Z,9.40
2019-03-21T09:15:39.319Z,9.70
2019-03-21T09:18:09.461Z,11.73
2019-03-21T09:20:39.608Z,6.03
2019-03-21T09:23:09.743Z,10.33
2019-03-21T09:25:39.923Z,11.53
2019-03-21T09:28:09.991Z,8.23
2019-03-21T09:30:40.227Z,10.10
2019-03-21T09:33:10.297Z,7.00
2019-03-21T09:35:40.445Z,7.83
2019-03-21T09:38:10.571Z,7.20
2019-03-21T09:40:40.792Z,7.20
2019-03-21T09:43:10.928Z,7.63
2019-03-21T09:45:41.051Z,6.60
2019-03-21T09:48:11.115Z,9.37
2019-03-21T09:50:41.269Z,10.50
2019-03-21T09:53:11.399Z,11.43
2019-03-21T09:55:41.552Z,12.33
2019-03-21T09:58:11.681Z,7.60
2019-03-21T10:00:41.825Z,8.47
2019-03-21T10:03:11.948Z,5.90
2019-03-21T10:05:42.087Z,9.07
2019-03-21T10:08:12.224Z,7.13
2019-03-21T10:10:42.417Z,6.17
2019-03-21T10:13:12.559Z,8.97
2019-03-21T10:15:42.619Z,7.00
2019-03-21T10:18:12.756Z,7.20
2019-03-21T10:20:42.859Z,7.53
2019-03-21T10:23:12.987Z,5.33
2019-03-21T10:25:43.120Z,4.17
2019-03-21T10:28:13.285Z,4.97
2019-03-21T10:30:43.716Z,6.90
2019-03-21T10:33:14.971Z,3.63
2019-03-21T10:35:45.119Z,4.73
2019-03-21T10:38:15.259Z,6.67
2019-03-21T10:40:45.431Z,8.27
2019-03-21T10:43:15.579Z,4.63
2019-03-21T10:45:45.723Z,5.43
2019-03-21T10:48:15.887Z,10.57
2019-03-21T10:50:46.057Z,5.87
2019-03-21T10:53:16.191Z,6.20
2019-03-21T10:55:46.336Z,8.63
2019-03-21T10:58:16.474Z,8.67
2019-03-21T11:00:46.732Z,5.27
2019-03-21T11:03:16.908Z,6.53
2019-03-21T11:05:47.071Z,9.90
2019-03-21T11:08:17.227Z,6.43
2019-03-21T11:10:47.456Z,13.90
2019-03-21T11:13:17.527Z,7.07
2019-03-21T11:15:47.667Z,4.83
2019-03-21T11:18:17.804Z,9.70
2019-03-21T11:20:47.993Z,6.07
2019-03-21T11:23:18.230Z,9.47
2019-03-21T11:25:48.411Z,15.80
2019-03-21T11:28:18.576Z,9.33
2019-03-21T11:30:48.728Z,11.70
2019-03-21T11:33:18.923Z,10.77
2019-03-21T11:35:49.109Z,9.97
2019-03-21T11:38:19.299Z,6.40
2019-03-21T11:40:49.500Z,6.80
2019-03-21T11:43:20.476Z,6.17
2019-03-21T11:45:50.661Z,7.57
2019-03-21T11:48:20.832Z,5.87
2019-03-21T11:50:51.006Z,10.87
2019-03-21T11:53:21.148Z,17.47
2019-03-21T11:55:51.276Z,7.17
2019-03-21T11:58:21.420Z,7.77
2019-03-21T12:00:51.553Z,9.47
2019-03-21T12:03:24.243Z,11.93
2019-03-21T12:05:53.499Z,10.90
2019-03-21T12:08:23.674Z,11.23
2019-03-21T12:10:53.799Z,6.63
2019-03-21T12:13:23.979Z,3.03
2019-03-21T12:15:54.114Z,12.23
2019-03-21T12:18:24.231Z,7.60
2019-03-21T12:20:54.392Z,12.33
2019-03-21T12:23:24.531Z,6.07
2019-03-21T12:25:54.675Z,8.27
2019-03-21T12:28:24.846Z,2.30
2019-03-21T12:30:55.510Z,9.57
2019-03-21T12:33:25.670Z,4.30
2019-03-21T12:35:55.775Z,7.77
2019-03-21T12:38:25.919Z,4.50
2019-03-21T12:40:56.124Z,7.47
2019-03-21T12:43:26.275Z,6.80
2019-03-21T12:45:56.334Z,4.07
2019-03-21T12:48:26.423Z,7.63
2019-03-21T12:50:56.575Z,6.30
2019-03-21T12:53:26.705Z,3.77
2019-03-21T12:55:56.841Z,10.60
2019-03-21T12:58:27.038Z,11.10
2019-03-21T13:00:57.151Z,11.90
2019-03-21T13:03:27.291Z,12.13
2019-03-21T13:05:57.413Z,8.30
2019-03-21T13:08:33.785Z,5.90
2019-03-21T13:11:00.940Z,6.10
2019-03-21T13:13:31.373Z,6.03
2019-03-21T13:16:01.507Z,11.27
2019-03-21T13:18:31.679Z,11.20
2019-03-21T13:21:01.848Z,6.17
2019-03-21T13:23:32.051Z,4.70
2019-03-21T13:26:02.237Z,9.13
2019-03-21T13:28:32.381Z,4.80
2019-03-21T13:31:02.552Z,10.30
2019-03-21T13:33:32.692Z,8.10
2019-03-21T13:36:02.863Z,6.73
2019-03-21T13:38:33.008Z,6.10
2019-03-21T13:41:03.211Z,2.57
2019-03-21T13:43:33.374Z,7.10
2019-03-21T13:46:03.706Z,3.60
2019-03-21T13:48:33.855Z,4.93
2019-03-21T13:51:04.006Z,9.43
2019-03-21T13:53:34.142Z,7.30
2019-03-21T13:56:04.282Z,30.83
2019-03-21T13:58:34.335Z,10.17
2019-03-21T14:01:04.413Z,5.97
2019-03-21T14:03:34.560Z,4.43
2019-03-21T14:06:04.708Z,3.03
2019-03-21T14:08:34.866Z,6.30
2019-03-21T14:11:05.268Z,7.50
2019-03-21T14:13:35.400Z,5.37
2019-03-21T14:16:05.647Z,16.93
2019-03-21T14:18:35.776Z,11.37
2019-03-21T14:21:05.858Z,5.57
2019-03-21T14:23:43.133Z,8.80
2019-03-21T14:26:07.745Z,7.33
2019-03-21T14:28:37.927Z,10.60
2019-03-21T14:31:08.092Z,8.03
2019-03-21T14:33:38.228Z,8.13
2019-03-21T14:36:08.375Z,12.27
2019-03-21T14:38:38.567Z,11.60
2019-03-21T14:41:08.753Z,10.57
2019-03-21T14:43:38.817Z,9.43
2019-03-21T14:46:08.951Z,16.50
2019-03-21T14:48:39.086Z,6.90
2019-03-21T14:51:09.236Z,7.00
2019-03-21T14:53:39.389Z,9.50
2019-03-21T14:56:09.543Z,9.73
2019-03-21T14:58:39.671Z,4.27
2019-03-21T15:01:09.845Z,9.30
2019-03-21T15:03:39.991Z,9.37
2019-03-21T15:06:10.147Z,7.83
2019-03-21T15:08:40.314Z,11.23
2019-03-21T15:11:17.043Z,20.77
2019-03-21T15:13:42.312Z,12.17
2019-03-21T15:16:12.503Z,23.80
2019-03-21T15:18:42.609Z,16.23
2019-03-21T15:21:12.815Z,6.07
2019-03-21T15:23:42.893Z,5.70
2019-03-21T15:26:13.011Z,11.80
2019-03-21T15:28:43.098Z,8.13
2019-03-21T15:31:13.219Z,6.03
2019-03-21T15:33:43.368Z,9.10
2019-03-21T15:36:13.560Z,8.03
2019-03-21T15:38:43.724Z,16.03
2019-03-21T15:41:13.907Z,5.80
2019-03-21T15:43:44.050Z,12.30
2019-03-21T15:46:14.218Z,10.57
2019-03-21T15:48:44.355Z,4.77
2019-03-21T15:51:14.504Z,6.10
2019-03-21T15:53:54.527Z,19.17
2019-03-21T15:56:16.431Z,8.97
2019-03-21T15:58:46.572Z,25.97
2019-03-21T16:01:16.715Z,10.77
2019-03-21T16:03:46.871Z,16.10
2019-03-21T16:06:17.339Z,10.43
2019-03-21T16:08:47.483Z,6.80
2019-03-21T16:11:17.697Z,5.53
2019-03-21T16:13:47.840Z,13.20
2019-03-21T16:16:17.896Z,16.77
2019-03-21T16:18:48.047Z,13.03
2019-03-21T16:21:18.221Z,8.30
2019-03-21T16:23:48.360Z,6.27
2019-03-21T16:26:18.504Z,4.87
2019-03-21T16:28:48.577Z,7.80
2019-03-21T16:31:18.764Z,5.20
2019-03-21T16:33:48.912Z,6.63
2019-03-21T16:36:19.068Z,6.33
2019-03-21T16:38:49.207Z,24.33
2019-03-21T16:41:19.405Z,7.20
2019-03-21T16:43:49.651Z,6.73
2019-03-21T16:46:19.775Z,8.27
2019-03-21T16:48:49.911Z,6.87
2019-03-21T16:51:20.164Z,5.73
2019-03-21T16:53:50.282Z,5.20
2019-03-21T16:56:20.417Z,9.40
2019-03-21T16:58:50.567Z,12.10
2019-03-21T17:01:20.740Z,6.53
2019-03-21T17:03:50.903Z,3.30
2019-03-21T17:06:21.042Z,4.30
2019-03-21T17:08:52.237Z,11.63
2019-03-21T17:11:22.411Z,9.40
2019-03-21T17:13:52.560Z,6.90
2019-03-21T17:16:23.111Z,3.40
2019-03-21T17:18:53.269Z,4.17
2019-03-21T17:21:23.418Z,8.60
2019-03-21T17:23:53.483Z,13.33
2019-03-21T17:26:23.639Z,7.63
2019-03-21T17:28:53.773Z,6.17
2019-03-21T17:31:23.909Z,7.00
2019-03-21T17:33:54.060Z,10.97
2019-03-21T17:36:24.196Z,3.93
2019-03-21T17:38:54.273Z,11.07
2019-03-21T17:41:24.412Z,6.80
2019-03-21T17:43:54.592Z,5.93
2019-03-21T17:46:24.735Z,5.30
2019-03-21T17:48:54.868Z,8.77
2019-03-21T17:51:25.060Z,6.03
2019-03-21T17:53:55.141Z,5.00
2019-03-21T17:56:25.295Z,9.77
2019-03-21T17:58:55.475Z,8.10
2019-03-21T18:01:27.347Z,5.70
2019-03-21T18:03:57.508Z,6.37
2019-03-21T18:06:28.574Z,10.93
2019-03-21T18:08:58.635Z,5.67
2019-03-21T18:11:28.777Z,3.90
2019-03-21T18:13:58.983Z,10.37
2019-03-21T18:16:29.132Z,3.57
2019-03-21T18:18:59.336Z,7.30
2019-03-21T18:21:29.544Z,5.70
2019-03-21T18:23:59.696Z,6.17
2019-03-21T18:26:29.848Z,5.10
2019-03-21T18:29:00.015Z,8.70
2019-03-21T18:31:30.060Z,2.67
2019-03-21T18:34:00.495Z,6.70
2019-03-21T18:36:30.660Z,8.40
2019-03-21T18:39:00.878Z,10.53
2019-03-21T18:41:31.381Z,5.97
2019-03-21T18:44:01.580Z,3.10
2019-03-21T18:46:31.792Z,4.10
2019-03-21T18:49:01.879Z,2.60
2019-03-21T18:51:32.060Z,7.33
2019-03-21T18:54:02.252Z,4.23
2019-03-21T18:56:32.425Z,6.30
2019-03-21T18:59:02.625Z,6.40
2019-03-21T19:01:32.776Z,4.00
2019-03-21T19:04:02.889Z,4.93
2019-03-21T19:06:33.064Z,1.93
2019-03-21T19:09:04.228Z,4.83
2019-03-21T19:11:34.379Z,6.13
2019-03-21T19:14:04.559Z,3.87
2019-03-21T19:16:34.713Z,4.53
2019-03-21T19:19:04.861Z,5.17
2019-03-21T19:21:35.110Z,4.10
2019-03-21T19:24:05.812Z,3.13
2019-03-21T19:26:35.997Z,7.40
2019-03-21T19:29:06.224Z,6.40
2019-03-21T19:31:36.387Z,7.03
2019-03-21T19:34:06.531Z,3.13
2019-03-21T19:36:36.663Z,3.77
2019-03-21T19:39:09.432Z,3.50
2019-03-21T19:41:39.548Z,5.63
2019-03-21T19:44:09.764Z,2.83
2019-03-21T19:46:39.921Z,5.40
2019-03-21T19:49:10.056Z,4.10
2019-03-21T19:51:40.240Z,5.87
2019-03-21T19:54:10.380Z,9.07
2019-03-21T19:56:40.528Z,4.30
2019-03-21T19:59:10.671Z,7.50
2019-03-21T20:01:40.826Z,5.53
2019-03-21T20:04:10.961Z,3.83
2019-03-21T20:06:41.123Z,5.13
2019-03-21T20:09:11.212Z,6.63
2019-03-21T20:11:41.360Z,4.20
2019-03-21T20:14:11.610Z,8.67
2019-03-21T20:16:41.747Z,6.17
2019-03-21T20:19:11.893Z,4.97
2019-03-21T20:21:47.782Z,12.00
2019-03-21T20:24:13.839Z,4.23
2019-03-21T20:26:43.984Z,3.53
2019-03-21T20:29:14.131Z,3.97
2019-03-21T20:31:44.224Z,5.77
2019-03-21T20:34:14.481Z,3.53
2019-03-21T20:36:44.619Z,5.23
2019-03-21T20:39:14.772Z,5.03
2019-03-21T20:41:44.832Z,7.20
2019-03-21T20:44:15.636Z,2.30
2019-03-21T20:46:45.730Z,2.73
2019-03-21T20:49:15.854Z,4.53
2019-03-21T20:51:46.008Z,6.90
2019-03-21T20:54:16.209Z,6.03
2019-03-21T20:56:46.324Z,2.87
2019-03-21T20:59:16.537Z,6.80
2019-03-21T21:01:46.665Z,2.00
2019-03-21T21:04:16.819Z,4.70
2019-03-21T21:06:47.059Z,7.03
2019-03-21T21:09:17.216Z,4.63
2019-03-21T21:11:47.292Z,4.10
2019-03-21T21:14:17.544Z,6.47
2019-03-21T21:16:47.600Z,9.57
2019-03-21T21:19:17.785Z,5.47
2019-03-21T21:21:47.977Z,3.67
2019-03-21T21:24:18.149Z,4.47
2019-03-21T21:26:48.307Z,5.57
2019-03-21T21:29:18.457Z,6.40
2019-03-21T21:31:48.604Z,4.13
2019-03-21T21:34:18.752Z,7.00
2019-03-21T21:36:48.910Z,5.60
2019-03-21T21:39:19.071Z,5.13
2019-03-21T21:41:49.208Z,5.60
2019-03-21T21:44:19.420Z,4.67
2019-03-21T21:46:49.583Z,3.27
2019-03-21T21:49:19.719Z,4.77
2019-03-21T21:51:49.891Z,3.27
2019-03-21T21:54:20.037Z,6.50
2019-03-21T21:56:50.215Z,4.47
2019-03-21T21:59:20.360Z,6.67
2019-03-21T22:01:50.579Z,2.60
2019-03-21T22:04:20.739Z,4.83
2019-03-21T22:06:50.871Z,5.63
2019-03-21T22:09:21.024Z,4.10
2019-03-21T22:11:51.160Z,7.70
2019-03-21T22:14:21.320Z,7.33
2019-03-21T22:16:51.456Z,5.03
2019-03-21T22:19:21.591Z,4.13
2019-03-21T22:21:51.819Z,6.23
2019-03-21T22:24:21.908Z,4.17
2019-03-21T22:26:52.053Z,4.33
2019-03-21T22:29:22.203Z,3.13
2019-03-21T22:31:52.343Z,5.87
2019-03-21T22:34:22.502Z,5.77
2019-03-21T22:36:52.543Z,5.40
2019-03-21T22:39:22.695Z,12.60
2019-03-21T22:41:52.827Z,6.63
2019-03-21T22:44:23.032Z,4.80
2019-03-21T22:46:53.191Z,6.90
2019-03-21T22:49:23.310Z,6.90
2019-03-21T22:51:53.476Z,3.23
2019-03-21T22:54:23.533Z,6.23
2019-03-21T22:56:53.683Z,5.20
2019-03-21T22:59:23.823Z,4.97
2019-03-21T23:01:53.900Z,4.90
2019-03-21T23:04:24.015Z,2.57
2019-03-21T23:06:54.080Z,2.87
2019-03-21T23:09:24.235Z,1.43
2019-03-21T23:11:54.367Z,3.00
2019-03-21T23:14:24.591Z,1.50
2019-03-21T23:16:54.727Z,4.03
2019-03-21T23:19:24.783Z,3.57
2019-03-21T23:21:54.941Z,2.47
2019-03-21T23:24:25.092Z,5.63
2019-03-21T23:26:55.252Z,2.50
2019-03-21T23:29:25.391Z,4.00
2019-03-21T23:31:55.780Z,2.23
2019-03-21T23:34:25.929Z,1.53
2019-03-21T23:36:56.000Z,1.50
2019-03-21T23:39:26.051Z,0.70
2019-03-21T23:41:56.202Z,2.20
2019-03-21T23:44:26.388Z,1.27
2019-03-21T23:46:56.527Z,0.50
2019-03-21T23:49:26.655Z,1.47
2019-03-21T23:51:56.824Z,0.90
2019-03-21T23:54:26.877Z,3.53
2019-03-21T23:57:04.378Z,2.20
2019-03-21T23:59:28.734Z,3.13
